Terminal Aerodrome Forecast
Issued by NWS

Home | Current Version | Previous Version | Text Only | Print | Product List | Glossary On
Versions: 1 2 3 4 5 6 7 8 9 10 11 12 13 14 15 16 17 18 19
361
FTUS44 KEWX 132320
TAFSSF
TAF
KSSF 132320Z 1400/1424 22005KT P6SM BKN250
     FM140800 28003KT P6SM SCT100 BKN250
     FM142100 02010KT P6SM BKN250=

USA.gov is the U.S. government's official web portal to all federal, state and local government web resources and services.